sensor_id;sensor_type;location;lat;lon;timestamp;temperature;humidity
33741;DHT22;20065;48.380;10.892;2023-02-01T00:01:51;3.60;99.90
33741;DHT22;20065;48.380;10.892;2023-02-01T00:04:37;3.50;99.90
33741;DHT22;20065;48.380;10.892;2023-02-01T00:07:23;3.50;99.90
33741;DHT22;20065;48.380;10.892;2023-02-01T00:10:09;3.50;99.90
33741;DHT22;20065;48.380;10.892;2023-02-01T00:12:57;3.50;99.90
33741;DHT22;20065;48.380;10.892;2023-02-01T00:15:43;3.40;99.90
33741;DHT22;20065;48.380;10.892;2023-02-01T00:18:29;3.30;99.90
33741;DHT22;20065;48.380;10.892;2023-02-01T00:21:17;3.30;99.90
33741;DHT22;20065;48.380;10.892;2023-02-01T00:24:03;3.30;99.90
33741;DHT22;20065;48.380;10.892;2023-02-01T00:26:49;3.30;99.90
33741;DHT22;20065;48.380;10.892;2023-02-01T00:29:36;3.20;99.90
33741;DHT22;20065;48.380;10.892;2023-02-01T00:32:23;3.20;99.90
33741;DHT22;20065;48.380;10.892;2023-02-01T00:35:09;3.20;99.90
33741;DHT22;20065;48.380;10.892;2023-02-01T00:37:56;3.20;99.90
33741;DHT22;20065;48.380;10.892;2023-02-01T00:40:44;3.20;99.90
33741;DHT22;20065;48.380;10.892;2023-02-01T00:43:31;3.10;99.90
33741;DHT22;20065;48.380;10.892;2023-02-01T00:46:19;3.10;99.90
33741;DHT22;20065;48.380;10.892;2023-02-01T00:49:05;3.10;99.90
33741;DHT22;20065;48.380;10.892;2023-02-01T00:51:53;3.10;99.90
33741;DHT22;20065;48.380;10.892;2023-02-01T00:54:39;3.10;99.90
33741;DHT22;20065;48.380;10.892;2023-02-01T00:57:25;3.00;99.90
33741;DHT22;20065;48.380;10.892;2023-02-01T01:00:12;3.00;99.90
33741;DHT22;20065;48.380;10.892;2023-02-01T01:02:58;3.00;99.90
33741;DHT22;20065;48.380;10.892;2023-02-01T01:05:48;3.10;99.90
33741;DHT22;20065;48.380;10.892;2023-02-01T01:08:35;3.00;99.90
33741;DHT22;20065;48.380;10.892;2023-02-01T01:11:30;3.00;99.90
33741;DHT22;20065;48.380;10.892;2023-02-01T01:14:17;3.00;99.90
33741;DHT22;20065;48.380;10.892;2023-02-01T01:17:03;3.00;99.90
33741;DHT22;20065;48.380;10.892;2023-02-01T01:19:49;3.00;99.90
33741;DHT22;20065;48.380;10.892;2023-02-01T01:22:35;3.00;99.90
33741;DHT22;20065;48.380;10.892;2023-02-01T01:25:21;3.00;99.90
33741;DHT22;20065;48.380;10.892;2023-02-01T01:28:07;2.90;99.90
33741;DHT22;20065;48.380;10.892;2023-02-01T01:30:53;2.90;99.90
33741;DHT22;20065;48.380;10.892;2023-02-01T01:33:40;2.90;99.90
33741;DHT22;20065;48.380;10.892;2023-02-01T01:36:27;3.00;99.90
33741;DHT22;20065;48.380;10.892;2023-02-01T01:39:14;2.90;99.90
33741;DHT22;20065;48.380;10.892;2023-02-01T01:42:00;2.90;99.90
33741;DHT22;20065;48.380;10.892;2023-02-01T01:45:07;2.80;99.90
33741;DHT22;20065;48.380;10.892;2023-02-01T01:47:58;2.80;99.90
33741;DHT22;20065;48.380;10.892;2023-02-01T01:51:02;2.80;99.90
33741;DHT22;20065;48.380;10.892;2023-02-01T01:54:01;2.70;99.90
33741;DHT22;20065;48.380;10.892;2023-02-01T01:56:52;2.70;99.90
33741;DHT22;20065;48.380;10.892;2023-02-01T01:59:40;2.70;99.90
33741;DHT22;20065;48.380;10.892;2023-02-01T02:02:27;2.70;99.90
33741;DHT22;20065;48.380;10.892;2023-02-01T02:05:16;2.70;99.90
33741;DHT22;20065;48.380;10.892;2023-02-01T02:08:02;2.80;99.90
33741;DHT22;20065;48.380;10.892;2023-02-01T02:10:50;2.80;99.90
33741;DHT22;20065;48.380;10.892;2023-02-01T02:13:48;2.80;99.90
33741;DHT22;20065;48.380;10.892;2023-02-01T02:20:08;2.90;99.90
33741;DHT22;20065;48.380;10.892;2023-02-01T02:26:10;2.90;99.90
33741;DHT22;20065;48.380;10.892;2023-02-01T02:41:27;2.80;99.90
33741;DHT22;20065;48.380;10.892;2023-02-01T02:44:53;2.80;99.90
33741;DHT22;20065;48.380;10.892;2023-02-01T02:51:23;2.90;99.90
33741;DHT22;20065;48.380;10.892;2023-02-01T02:54:33;2.90;99.90
33741;DHT22;20065;48.380;10.892;2023-02-01T02:57:36;2.90;99.90
33741;DHT22;20065;48.380;10.892;2023-02-01T03:00:42;2.90;99.90
33741;DHT22;20065;48.380;10.892;2023-02-01T03:03:49;2.90;99.90
33741;DHT22;20065;48.380;10.892;2023-02-01T03:06:55;2.90;99.90
33741;DHT22;20065;48.380;10.892;2023-02-01T03:09:45;2.90;99.90
33741;DHT22;20065;48.380;10.892;2023-02-01T03:12:36;2.90;99.90
33741;DHT22;20065;48.380;10.892;2023-02-01T03:15:56;2.90;99.90
33741;DHT22;20065;48.380;10.892;2023-02-01T03:19:13;2.90;99.90
33741;DHT22;20065;48.380;10.892;2023-02-01T03:22:06;2.90;99.90
33741;DHT22;20065;48.380;10.892;2023-02-01T03:24:56;2.90;99.90
33741;DHT22;20065;48.380;10.892;2023-02-01T03:27:52;2.90;99.90
33741;DHT22;20065;48.380;10.892;2023-02-01T03:30:42;3.00;99.90
33741;DHT22;20065;48.380;10.892;2023-02-01T03:33:29;2.90;99.90
33741;DHT22;20065;48.380;10.892;2023-02-01T03:36:28;3.00;99.90
33741;DHT22;20065;48.380;10.892;2023-02-01T03:39:21;3.00;99.90
33741;DHT22;20065;48.380;10.892;2023-02-01T03:42:17;2.90;99.90
33741;DHT22;20065;48.380;10.892;2023-02-01T03:45:17;2.90;99.90
33741;DHT22;20065;48.380;10.892;2023-02-01T03:48:05;2.90;99.90
33741;DHT22;20065;48.380;10.892;2023-02-01T03:50:55;2.90;99.90
33741;DHT22;20065;48.380;10.892;2023-02-01T03:53:44;2.90;99.90
33741;DHT22;20065;48.380;10.892;2023-02-01T03:56:36;2.90;99.90
33741;DHT22;20065;48.380;10.892;2023-02-01T03:59:23;3.00;99.90
33741;DHT22;20065;48.380;10.892;2023-02-01T04:02:10;3.10;99.90
33741;DHT22;20065;48.380;10.892;2023-02-01T04:04:56;3.10;99.90
33741;DHT22;20065;48.380;10.892;2023-02-01T04:07:42;3.20;99.90
33741;DHT22;20065;48.380;10.892;2023-02-01T04:10:28;3.20;99.90
33741;DHT22;20065;48.380;10.892;2023-02-01T04:13:14;3.20;99.90
33741;DHT22;20065;48.380;10.892;2023-02-01T04:16:00;3.20;99.90
33741;DHT22;20065;48.380;10.892;2023-02-01T04:18:46;3.20;99.90
33741;DHT22;20065;48.380;10.892;2023-02-01T04:21:32;3.20;99.90
33741;DHT22;20065;48.380;10.892;2023-02-01T04:24:18;3.20;99.90
33741;DHT22;20065;48.380;10.892;2023-02-01T04:27:05;3.20;99.90
33741;DHT22;20065;48.380;10.892;2023-02-01T04:29:51;3.30;99.90
33741;DHT22;20065;48.380;10.892;2023-02-01T04:32:38;3.30;99.90
33741;DHT22;20065;48.380;10.892;2023-02-01T04:35:24;3.40;99.90
33741;DHT22;20065;48.380;10.892;2023-02-01T04:38:10;3.30;99.90
33741;DHT22;20065;48.380;10.892;2023-02-01T04:40:56;3.60;99.90
33741;DHT22;20065;48.380;10.892;2023-02-01T04:43:42;3.40;99.90
33741;DHT22;20065;48.380;10.892;2023-02-01T04:46:28;3.20;99.90
33741;DHT22;20065;48.380;10.892;2023-02-01T04:49:14;3.40;99.90
33741;DHT22;20065;48.380;10.892;2023-02-01T04:52:00;3.40;99.90
33741;DHT22;20065;48.380;10.892;2023-02-01T04:54:46;3.30;99.90
33741;DHT22;20065;48.380;10.892;2023-02-01T04:57:32;3.30;99.90
33741;DHT22;20065;48.380;10.892;2023-02-01T05:00:24;3.30;99.90
33741;DHT22;20065;48.380;10.892;2023-02-01T05:03:10;3.20;99.90
33741;DHT22;20065;48.380;10.892;2023-02-01T05:05:56;3.20;99.90
33741;DHT22;20065;48.380;10.892;2023-02-01T05:08:42;3.30;99.90
33741;DHT22;20065;48.380;10.892;2023-02-01T05:11:28;3.30;99.90
33741;DHT22;20065;48.380;10.892;2023-02-01T05:14:33;3.30;99.90
33741;DHT22;20065;48.380;10.892;2023-02-01T05:17:19;3.30;99.90
33741;DHT22;20065;48.380;10.892;2023-02-01T05:20:06;3.30;99.90
33741;DHT22;20065;48.380;10.892;2023-02-01T05:22:52;3.30;99.90
33741;DHT22;20065;48.380;10.892;2023-02-01T05:25:38;3.30;99.90
33741;DHT22;20065;48.380;10.892;2023-02-01T05:28:24;3.30;99.90
33741;DHT22;20065;48.380;10.892;2023-02-01T05:31:11;3.30;99.90
33741;DHT22;20065;48.380;10.892;2023-02-01T05:33:57;3.30;99.90
33741;DHT22;20065;48.380;10.892;2023-02-01T05:36:43;3.30;99.90
33741;DHT22;20065;48.380;10.892;2023-02-01T05:39:29;3.40;99.90
33741;DHT22;20065;48.380;10.892;2023-02-01T05:42:15;3.40;99.90
33741;DHT22;20065;48.380;10.892;2023-02-01T05:45:01;3.40;99.90
33741;DHT22;20065;48.380;10.892;2023-02-01T05:47:47;3.40;99.90
33741;DHT22;20065;48.380;10.892;2023-02-01T05:50:33;3.40;99.90
33741;DHT22;20065;48.380;10.892;2023-02-01T05:53:28;3.40;99.90
33741;DHT22;20065;48.380;10.892;2023-02-01T05:56:14;3.40;99.90
33741;DHT22;20065;48.380;10.892;2023-02-01T05:59:00;3.40;99.90
33741;DHT22;20065;48.380;10.892;2023-02-01T06:01:46;3.40;99.90
33741;DHT22;20065;48.380;10.892;2023-02-01T06:04:34;3.40;99.90
33741;DHT22;20065;48.380;10.892;2023-02-01T06:07:21;3.40;99.90
33741;DHT22;20065;48.380;10.892;2023-02-01T06:10:08;3.40;99.90
33741;DHT22;20065;48.380;10.892;2023-02-01T06:12:54;3.50;99.90
33741;DHT22;20065;48.380;10.892;2023-02-01T06:15:41;3.50;99.90
33741;DHT22;20065;48.380;10.892;2023-02-01T06:18:28;3.50;99.90
33741;DHT22;20065;48.380;10.892;2023-02-01T06:21:15;3.50;99.90
33741;DHT22;20065;48.380;10.892;2023-02-01T06:24:09;3.40;99.90
33741;DHT22;20065;48.380;10.892;2023-02-01T06:26:55;3.50;99.90
33741;DHT22;20065;48.380;10.892;2023-02-01T06:29:41;3.60;99.90
33741;DHT22;20065;48.380;10.892;2023-02-01T06:32:27;3.60;99.90
33741;DHT22;20065;48.380;10.892;2023-02-01T06:35:15;3.60;99.90
33741;DHT22;20065;48.380;10.892;2023-02-01T06:38:02;3.60;99.90
33741;DHT22;20065;48.380;10.892;2023-02-01T06:40:52;3.60;99.90
33741;DHT22;20065;48.380;10.892;2023-02-01T06:43:39;3.60;99.90
33741;DHT22;20065;48.380;10.892;2023-02-01T06:46:25;3.60;99.90
33741;DHT22;20065;48.380;10.892;2023-02-01T06:49:11;3.60;99.90
33741;DHT22;20065;48.380;10.892;2023-02-01T06:51:57;3.70;99.90
33741;DHT22;20065;48.380;10.892;2023-02-01T06:54:45;3.70;99.90
33741;DHT22;20065;48.380;10.892;2023-02-01T06:57:31;3.60;99.90
33741;DHT22;20065;48.380;10.892;2023-02-01T07:00:19;3.60;99.90
33741;DHT22;20065;48.380;10.892;2023-02-01T07:03:05;3.60;99.90
33741;DHT22;20065;48.380;10.892;2023-02-01T07:05:55;3.60;99.90
33741;DHT22;20065;48.380;10.892;2023-02-01T07:08:42;3.70;99.90
33741;DHT22;20065;48.380;10.892;2023-02-01T07:11:28;3.70;99.90
33741;DHT22;20065;48.380;10.892;2023-02-01T07:14:14;3.70;99.90
33741;DHT22;20065;48.380;10.892;2023-02-01T07:17:00;3.80;99.90
33741;DHT22;20065;48.380;10.892;2023-02-01T07:19:46;3.80;99.90
33741;DHT22;20065;48.380;10.892;2023-02-01T07:22:32;3.80;99.90
33741;DHT22;20065;48.380;10.892;2023-02-01T07:25:18;3.80;99.90
33741;DHT22;20065;48.380;10.892;2023-02-01T07:28:04;3.80;99.90
33741;DHT22;20065;48.380;10.892;2023-02-01T07:30:51;3.80;99.90
33741;DHT22;20065;48.380;10.892;2023-02-01T07:33:37;3.80;99.90
33741;DHT22;20065;48.380;10.892;2023-02-01T07:36:24;3.80;99.90
33741;DHT22;20065;48.380;10.892;2023-02-01T07:39:10;3.80;99.90
33741;DHT22;20065;48.380;10.892;2023-02-01T07:41:56;3.90;99.90
33741;DHT22;20065;48.380;10.892;2023-02-01T07:44:42;3.90;99.90
33741;DHT22;20065;48.380;10.892;2023-02-01T07:47:28;4.00;99.90
33741;DHT22;20065;48.380;10.892;2023-02-01T07:50:15;4.00;99.90
33741;DHT22;20065;48.380;10.892;2023-02-01T07:53:01;4.10;99.90
33741;DHT22;20065;48.380;10.892;2023-02-01T07:55:47;4.10;99.90
33741;DHT22;20065;48.380;10.892;2023-02-01T07:58:33;4.10;99.90
33741;DHT22;20065;48.380;10.892;2023-02-01T08:01:24;4.10;99.90
33741;DHT22;20065;48.380;10.892;2023-02-01T08:04:12;4.10;99.90
33741;DHT22;20065;48.380;10.892;2023-02-01T08:06:58;4.20;99.90
33741;DHT22;20065;48.380;10.892;2023-02-01T08:09:44;4.20;99.90
33741;DHT22;20065;48.380;10.892;2023-02-01T08:12:30;4.20;99.90
33741;DHT22;20065;48.380;10.892;2023-02-01T08:15:17;4.30;99.90
33741;DHT22;20065;48.380;10.892;2023-02-01T08:18:03;4.30;99.90
33741;DHT22;20065;48.380;10.892;2023-02-01T08:20:50;4.40;99.90
33741;DHT22;20065;48.380;10.892;2023-02-01T08:23:38;4.40;99.90
33741;DHT22;20065;48.380;10.892;2023-02-01T08:26:25;4.40;99.90
33741;DHT22;20065;48.380;10.892;2023-02-01T08:29:11;4.40;99.90
33741;DHT22;20065;48.380;10.892;2023-02-01T08:31:59;4.40;99.90
33741;DHT22;20065;48.380;10.892;2023-02-01T08:34:45;4.40;99.90
33741;DHT22;20065;48.380;10.892;2023-02-01T08:37:31;4.50;99.90
33741;DHT22;20065;48.380;10.892;2023-02-01T08:40:17;4.50;99.90
33741;DHT22;20065;48.380;10.892;2023-02-01T08:43:03;4.50;99.90
33741;DHT22;20065;48.380;10.892;2023-02-01T08:45:50;4.50;99.90
33741;DHT22;20065;48.380;10.892;2023-02-01T08:48:40;4.60;99.90
33741;DHT22;20065;48.380;10.892;2023-02-01T08:51:26;4.50;99.90
33741;DHT22;20065;48.380;10.892;2023-02-01T08:54:11;4.60;99.90
33741;DHT22;20065;48.380;10.892;2023-02-01T08:57:18;4.60;99.90
33741;DHT22;20065;48.380;10.892;2023-02-01T09:00:06;4.60;99.90
33741;DHT22;20065;48.380;10.892;2023-02-01T09:02:52;4.70;99.90
33741;DHT22;20065;48.380;10.892;2023-02-01T09:05:39;4.70;99.90
33741;DHT22;20065;48.380;10.892;2023-02-01T09:08:25;4.70;99.90
33741;DHT22;20065;48.380;10.892;2023-02-01T09:11:14;4.80;99.90
33741;DHT22;20065;48.380;10.892;2023-02-01T09:14:00;4.80;99.90
33741;DHT22;20065;48.380;10.892;2023-02-01T09:16:47;4.90;99.90
33741;DHT22;20065;48.380;10.892;2023-02-01T09:19:33;5.00;99.90
33741;DHT22;20065;48.380;10.892;2023-02-01T09:22:19;5.00;99.90
33741;DHT22;20065;48.380;10.892;2023-02-01T09:25:06;4.90;99.90
33741;DHT22;20065;48.380;10.892;2023-02-01T09:27:53;5.00;99.90
33741;DHT22;20065;48.380;10.892;2023-02-01T09:30:39;5.10;99.90
33741;DHT22;20065;48.380;10.892;2023-02-01T09:33:26;5.00;99.90
33741;DHT22;20065;48.380;10.892;2023-02-01T09:36:13;5.00;99.90
33741;DHT22;20065;48.380;10.892;2023-02-01T09:39:00;4.90;99.90
33741;DHT22;20065;48.380;10.892;2023-02-01T09:45:07;4.90;99.90
33741;DHT22;20065;48.380;10.892;2023-02-01T09:47:59;5.00;99.90
33741;DHT22;20065;48.380;10.892;2023-02-01T09:50:55;4.90;99.90
33741;DHT22;20065;48.380;10.892;2023-02-01T09:53:46;4.90;99.90
33741;DHT22;20065;48.380;10.892;2023-02-01T09:56:48;5.00;99.90
33741;DHT22;20065;48.380;10.892;2023-02-01T09:59:46;4.90;99.90
33741;DHT22;20065;48.380;10.892;2023-02-01T10:02:35;4.90;99.90
33741;DHT22;20065;48.380;10.892;2023-02-01T10:06:13;5.00;99.90
33741;DHT22;20065;48.380;10.892;2023-02-01T10:21:27;5.10;99.90
33741;DHT22;20065;48.380;10.892;2023-02-01T10:24:34;5.10;99.90
33741;DHT22;20065;48.380;10.892;2023-02-01T10:27:23;5.00;99.90
33741;DHT22;20065;48.380;10.892;2023-02-01T10:30:16;4.90;99.90
33741;DHT22;20065;48.380;10.892;2023-02-01T10:33:17;4.90;99.90
33741;DHT22;20065;48.380;10.892;2023-02-01T10:36:21;4.90;99.90
33741;DHT22;20065;48.380;10.892;2023-02-01T10:39:11;5.00;99.90
33741;DHT22;20065;48.380;10.892;2023-02-01T10:41:57;4.90;99.90
33741;DHT22;20065;48.380;10.892;2023-02-01T10:44:44;5.00;99.90
33741;DHT22;20065;48.380;10.892;2023-02-01T10:47:32;4.80;99.90
33741;DHT22;20065;48.380;10.892;2023-02-01T10:53:47;4.90;99.90
33741;DHT22;20065;48.380;10.892;2023-02-01T10:56:37;5.00;99.90
33741;DHT22;20065;48.380;10.892;2023-02-01T10:59:25;4.90;99.90
33741;DHT22;20065;48.380;10.892;2023-02-01T11:02:21;4.80;99.90
33741;DHT22;20065;48.380;10.892;2023-02-01T11:05:13;4.80;99.90
33741;DHT22;20065;48.380;10.892;2023-02-01T11:08:02;4.90;99.90
33741;DHT22;20065;48.380;10.892;2023-02-01T11:11:00;4.90;99.90
33741;DHT22;20065;48.380;10.892;2023-02-01T11:13:56;4.90;99.90
33741;DHT22;20065;48.380;10.892;2023-02-01T11:16:48;4.90;99.90
33741;DHT22;20065;48.380;10.892;2023-02-01T11:19:35;4.90;99.90
33741;DHT22;20065;48.380;10.892;2023-02-01T11:22:21;4.90;99.90
33741;DHT22;20065;48.380;10.892;2023-02-01T11:25:12;4.80;99.90
33741;DHT22;20065;48.380;10.892;2023-02-01T11:28:00;4.80;99.90
33741;DHT22;20065;48.380;10.892;2023-02-01T11:30:47;4.80;99.90
33741;DHT22;20065;48.380;10.892;2023-02-01T11:33:36;4.80;99.90
33741;DHT22;20065;48.380;10.892;2023-02-01T11:36:29;4.80;99.90
33741;DHT22;20065;48.380;10.892;2023-02-01T11:39:29;5.00;99.90
33741;DHT22;20065;48.380;10.892;2023-02-01T11:42:17;4.90;99.90
33741;DHT22;20065;48.380;10.892;2023-02-01T11:45:33;4.90;99.90
33741;DHT22;20065;48.380;10.892;2023-02-01T11:48:24;4.80;99.90
33741;DHT22;20065;48.380;10.892;2023-02-01T11:57:24;4.70;99.90
33741;DHT22;20065;48.380;10.892;2023-02-01T12:12:24;4.60;99.90
33741;DHT22;20065;48.380;10.892;2023-02-01T12:21:32;4.60;99.90
33741;DHT22;20065;48.380;10.892;2023-02-01T12:25:36;4.60;99.90
33741;DHT22;20065;48.380;10.892;2023-02-01T12:34:20;4.60;99.90
33741;DHT22;20065;48.380;10.892;2023-02-01T12:40:21;4.80;99.90
33741;DHT22;20065;48.380;10.892;2023-02-01T12:46:50;4.90;99.90
33741;DHT22;20065;48.380;10.892;2023-02-01T12:49:53;4.90;99.90
33741;DHT22;20065;48.380;10.892;2023-02-01T12:52:45;4.90;99.90
33741;DHT22;20065;48.380;10.892;2023-02-01T12:55:55;5.00;99.90
33741;DHT22;20065;48.380;10.892;2023-02-01T12:58:53;5.10;99.90
33741;DHT22;20065;48.380;10.892;2023-02-01T13:01:52;5.00;99.90
33741;DHT22;20065;48.380;10.892;2023-02-01T13:11:10;5.10;99.90
33741;DHT22;20065;48.380;10.892;2023-02-01T13:22:54;4.90;99.90
33741;DHT22;20065;48.380;10.892;2023-02-01T13:25:48;4.90;99.90
33741;DHT22;20065;48.380;10.892;2023-02-01T13:28:51;5.00;99.90
33741;DHT22;20065;48.380;10.892;2023-02-01T13:43:53;5.10;99.90
33741;DHT22;20065;48.380;10.892;2023-02-01T13:46:46;5.00;99.90
33741;DHT22;20065;48.380;10.892;2023-02-01T13:49:38;5.00;99.90
33741;DHT22;20065;48.380;10.892;2023-02-01T13:52:43;5.00;99.90
33741;DHT22;20065;48.380;10.892;2023-02-01T13:56:08;5.00;99.90
33741;DHT22;20065;48.380;10.892;2023-02-01T13:58:56;4.90;99.90
33741;DHT22;20065;48.380;10.892;2023-02-01T14:08:42;4.50;99.90
33741;DHT22;20065;48.380;10.892;2023-02-01T14:11:37;4.40;99.90
33741;DHT22;20065;48.380;10.892;2023-02-01T14:23:23;4.30;99.90
33741;DHT22;20065;48.380;10.892;2023-02-01T14:26:13;4.30;99.90
33741;DHT22;20065;48.380;10.892;2023-02-01T14:34:58;4.30;99.90
33741;DHT22;20065;48.380;10.892;2023-02-01T14:37:47;4.40;99.90
33741;DHT22;20065;48.380;10.892;2023-02-01T14:40:37;4.30;99.90
33741;DHT22;20065;48.380;10.892;2023-02-01T14:43:50;4.40;99.90
33741;DHT22;20065;48.380;10.892;2023-02-01T14:49:56;4.50;99.90
33741;DHT22;20065;48.380;10.892;2023-02-01T14:52:47;4.50;99.90
33741;DHT22;20065;48.380;10.892;2023-02-01T14:58:42;4.60;99.90
33741;DHT22;20065;48.380;10.892;2023-02-01T15:01:35;4.60;99.90
33741;DHT22;20065;48.380;10.892;2023-02-01T15:04:24;4.70;99.90
33741;DHT22;20065;48.380;10.892;2023-02-01T15:07:13;4.70;99.90
33741;DHT22;20065;48.380;10.892;2023-02-01T15:09:59;4.80;99.90
33741;DHT22;20065;48.380;10.892;2023-02-01T15:12:46;4.90;99.90
33741;DHT22;20065;48.380;10.892;2023-02-01T15:15:34;5.00;99.90
33741;DHT22;20065;48.380;10.892;2023-02-01T15:18:22;5.00;99.90
33741;DHT22;20065;48.380;10.892;2023-02-01T15:21:18;5.00;99.90
33741;DHT22;20065;48.380;10.892;2023-02-01T15:24:24;5.00;99.90
33741;DHT22;20065;48.380;10.892;2023-02-01T15:27:10;5.10;99.90
33741;DHT22;20065;48.380;10.892;2023-02-01T15:30:27;5.10;99.90
33741;DHT22;20065;48.380;10.892;2023-02-01T15:33:17;5.00;99.90
33741;DHT22;20065;48.380;10.892;2023-02-01T15:36:31;5.00;99.90
33741;DHT22;20065;48.380;10.892;2023-02-01T15:43:15;5.10;99.90
33741;DHT22;20065;48.380;10.892;2023-02-01T15:46:12;5.10;99.90
33741;DHT22;20065;48.380;10.892;2023-02-01T15:49:05;5.00;99.90
33741;DHT22;20065;48.380;10.892;2023-02-01T15:52:02;5.00;99.90
33741;DHT22;20065;48.380;10.892;2023-02-01T15:54:59;5.00;99.90
33741;DHT22;20065;48.380;10.892;2023-02-01T15:57:47;4.90;99.90
33741;DHT22;20065;48.380;10.892;2023-02-01T16:00:58;4.90;99.90
33741;DHT22;20065;48.380;10.892;2023-02-01T16:03:45;4.80;99.90
33741;DHT22;20065;48.380;10.892;2023-02-01T16:06:35;4.90;99.90
33741;DHT22;20065;48.380;10.892;2023-02-01T16:09:39;4.80;99.90
33741;DHT22;20065;48.380;10.892;2023-02-01T16:12:49;4.80;99.90
33741;DHT22;20065;48.380;10.892;2023-02-01T16:15:35;4.80;99.90
33741;DHT22;20065;48.380;10.892;2023-02-01T16:18:21;4.80;99.90
33741;DHT22;20065;48.380;10.892;2023-02-01T16:21:08;4.70;99.90
33741;DHT22;20065;48.380;10.892;2023-02-01T16:23:59;4.70;99.90
33741;DHT22;20065;48.380;10.892;2023-02-01T16:26:49;4.70;99.90
33741;DHT22;20065;48.380;10.892;2023-02-01T16:29:35;4.70;99.90
33741;DHT22;20065;48.380;10.892;2023-02-01T16:32:22;4.60;99.90
33741;DHT22;20065;48.380;10.892;2023-02-01T16:35:23;4.60;99.90
33741;DHT22;20065;48.380;10.892;2023-02-01T16:38:13;4.70;99.90
33741;DHT22;20065;48.380;10.892;2023-02-01T16:41:00;4.60;99.90
33741;DHT22;20065;48.380;10.892;2023-02-01T16:43:52;4.70;99.90
33741;DHT22;20065;48.380;10.892;2023-02-01T16:46:41;4.70;99.90
33741;DHT22;20065;48.380;10.892;2023-02-01T16:49:29;4.70;99.90
33741;DHT22;20065;48.380;10.892;2023-02-01T16:52:24;4.70;99.90
33741;DHT22;20065;48.380;10.892;2023-02-01T16:55:15;4.60;99.90
33741;DHT22;20065;48.380;10.892;2023-02-01T16:58:02;4.60;99.90
33741;DHT22;20065;48.380;10.892;2023-02-01T17:00:48;4.60;99.90
33741;DHT22;20065;48.380;10.892;2023-02-01T17:03:35;4.40;99.90
33741;DHT22;20065;48.380;10.892;2023-02-01T17:06:23;4.60;99.90
33741;DHT22;20065;48.380;10.892;2023-02-01T17:09:10;4.60;99.90
33741;DHT22;20065;48.380;10.892;2023-02-01T17:11:56;4.60;99.90
33741;DHT22;20065;48.380;10.892;2023-02-01T17:14:42;4.60;99.90
33741;DHT22;20065;48.380;10.892;2023-02-01T17:17:35;4.60;99.90
33741;DHT22;20065;48.380;10.892;2023-02-01T17:20:23;4.60;99.90
33741;DHT22;20065;48.380;10.892;2023-02-01T17:23:10;4.60;99.90
33741;DHT22;20065;48.380;10.892;2023-02-01T17:25:57;4.70;99.90
33741;DHT22;20065;48.380;10.892;2023-02-01T17:28:43;4.60;99.90
33741;DHT22;20065;48.380;10.892;2023-02-01T17:31:29;4.60;99.90
33741;DHT22;20065;48.380;10.892;2023-02-01T17:34:17;4.60;99.90
33741;DHT22;20065;48.380;10.892;2023-02-01T17:37:05;4.60;99.90
33741;DHT22;20065;48.380;10.892;2023-02-01T17:39:59;4.60;99.90
33741;DHT22;20065;48.380;10.892;2023-02-01T17:42:45;4.50;99.90
33741;DHT22;20065;48.380;10.892;2023-02-01T17:45:42;4.50;99.90
33741;DHT22;20065;48.380;10.892;2023-02-01T17:48:35;4.60;99.90
33741;DHT22;20065;48.380;10.892;2023-02-01T17:51:25;4.60;99.90
33741;DHT22;20065;48.380;10.892;2023-02-01T17:54:16;4.50;99.90
33741;DHT22;20065;48.380;10.892;2023-02-01T17:57:11;4.60;99.90
33741;DHT22;20065;48.380;10.892;2023-02-01T17:59:57;4.60;99.90
33741;DHT22;20065;48.380;10.892;2023-02-01T18:02:43;4.60;99.90
33741;DHT22;20065;48.380;10.892;2023-02-01T18:05:40;4.60;99.90
33741;DHT22;20065;48.380;10.892;2023-02-01T18:08:30;4.60;99.90
33741;DHT22;20065;48.380;10.892;2023-02-01T18:11:21;4.60;99.90
33741;DHT22;20065;48.380;10.892;2023-02-01T18:14:12;4.60;99.90
33741;DHT22;20065;48.380;10.892;2023-02-01T18:16:59;4.60;99.90
33741;DHT22;20065;48.380;10.892;2023-02-01T18:19:45;4.60;99.90
33741;DHT22;20065;48.380;10.892;2023-02-01T18:22:31;4.50;99.90
33741;DHT22;20065;48.380;10.892;2023-02-01T18:28:06;4.50;99.90
33741;DHT22;20065;48.380;10.892;2023-02-01T18:30:52;4.50;99.90
33741;DHT22;20065;48.380;10.892;2023-02-01T18:33:39;4.50;99.90
33741;DHT22;20065;48.380;10.892;2023-02-01T18:36:26;4.60;99.90
33741;DHT22;20065;48.380;10.892;2023-02-01T18:39:12;4.60;99.90
33741;DHT22;20065;48.380;10.892;2023-02-01T18:41:59;4.60;99.90
33741;DHT22;20065;48.380;10.892;2023-02-01T18:44:47;4.60;99.90
33741;DHT22;20065;48.380;10.892;2023-02-01T18:47:33;4.60;99.90
33741;DHT22;20065;48.380;10.892;2023-02-01T18:50:20;4.60;99.90
33741;DHT22;20065;48.380;10.892;2023-02-01T18:53:14;4.60;99.90
33741;DHT22;20065;48.380;10.892;2023-02-01T18:56:00;4.60;99.90
33741;DHT22;20065;48.380;10.892;2023-02-01T18:58:47;4.60;99.90
33741;DHT22;20065;48.380;10.892;2023-02-01T19:01:34;4.60;99.90
33741;DHT22;20065;48.380;10.892;2023-02-01T19:04:21;4.60;99.90
33741;DHT22;20065;48.380;10.892;2023-02-01T19:07:07;4.60;99.90
33741;DHT22;20065;48.380;10.892;2023-02-01T19:09:54;4.60;99.90
33741;DHT22;20065;48.380;10.892;2023-02-01T19:12:40;4.60;99.90
33741;DHT22;20065;48.380;10.892;2023-02-01T19:15:26;4.60;99.90
33741;DHT22;20065;48.380;10.892;2023-02-01T19:18:13;4.60;99.90
33741;DHT22;20065;48.380;10.892;2023-02-01T19:21:08;4.60;99.90
33741;DHT22;20065;48.380;10.892;2023-02-01T19:23:55;4.60;99.90
33741;DHT22;20065;48.380;10.892;2023-02-01T19:26:41;4.60;99.90
33741;DHT22;20065;48.380;10.892;2023-02-01T19:29:29;4.60;99.90
33741;DHT22;20065;48.380;10.892;2023-02-01T19:32:15;4.60;99.90
33741;DHT22;20065;48.380;10.892;2023-02-01T19:35:02;4.60;99.90
33741;DHT22;20065;48.380;10.892;2023-02-01T19:37:49;4.60;99.90
33741;DHT22;20065;48.380;10.892;2023-02-01T19:40:35;4.60;99.90
33741;DHT22;20065;48.380;10.892;2023-02-01T19:43:22;4.60;99.90
33741;DHT22;20065;48.380;10.892;2023-02-01T19:46:09;4.20;99.90
33741;DHT22;20065;48.380;10.892;2023-02-01T19:48:55;4.60;99.90
33741;DHT22;20065;48.380;10.892;2023-02-01T19:51:41;4.60;99.90
33741;DHT22;20065;48.380;10.892;2023-02-01T19:54:29;4.60;99.90
33741;DHT22;20065;48.380;10.892;2023-02-01T19:57:15;4.60;99.90
33741;DHT22;20065;48.380;10.892;2023-02-01T20:00:03;4.60;99.90
33741;DHT22;20065;48.380;10.892;2023-02-01T20:02:53;4.60;99.90
33741;DHT22;20065;48.380;10.892;2023-02-01T20:08:54;4.60;99.90
33741;DHT22;20065;48.380;10.892;2023-02-01T20:11:41;4.60;99.90
33741;DHT22;20065;48.380;10.892;2023-02-01T20:14:27;4.60;99.90
33741;DHT22;20065;48.380;10.892;2023-02-01T20:17:15;4.60;99.90
33741;DHT22;20065;48.380;10.892;2023-02-01T20:20:04;4.60;99.90